Aviation Digital Data Service (ADDS)

Output produced by METARs form (1554 UTC 23 April 2017)
found at http://www.aviationweather.gov/adds/metars/
 
GLRB 231430Z 21004KT 8000 -TSRA FEW005 BKN016 FEW025CB 27/26 Q1010 RMK CB-N/S/SW/NW TEMPO TSRA
TAF GLRB 230400Z 2306/2412 23006KT 9999 BKN015 FEW025CB 
     BECMG 2307/2309 30008KT 9000 
     TEMPO 2311/2315 20012KT 7000 TSRA SCT004 BKN018 FEW028CB